createdAt,value
2023-01-25T00:00:11.856Z,13.30
2023-01-25T00:02:41.994Z,13.40
2023-01-25T00:05:12.583Z,14.63
2023-01-25T00:07:42.661Z,12.77
2023-01-25T00:10:13.216Z,13.73
2023-01-25T00:12:43.457Z,11.98
2023-01-25T00:15:13.816Z,13.13
2023-01-25T00:17:43.849Z,12.52
2023-01-25T00:20:13.915Z,13.65
2023-01-25T00:22:44.115Z,12.07
2023-01-25T00:25:14.138Z,12.57
2023-01-25T00:27:43.942Z,12.50
2023-01-25T00:30:14.172Z,12.15
2023-01-25T00:32:51.739Z,12.68
2023-01-25T00:35:21.728Z,12.13
2023-01-25T00:37:55.047Z,11.82
2023-01-25T00:40:25.116Z,13.25
2023-01-25T00:42:54.967Z,12.30
2023-01-25T00:45:24.915Z,13.23
2023-01-25T00:47:58.533Z,13.35
2023-01-25T00:50:28.650Z,12.55
2023-01-25T00:55:29.687Z,13.15
2023-01-25T00:57:59.834Z,12.02
2023-01-25T01:00:29.863Z,13.25
2023-01-25T01:03:00.543Z,12.73
2023-01-25T01:05:31.609Z,11.23
2023-01-25T01:08:01.693Z,11.93
2023-01-25T01:10:31.609Z,12.20
2023-01-25T01:13:01.525Z,11.90
2023-01-25T01:15:31.685Z,12.60
2023-01-25T01:18:01.834Z,12.38
2023-01-25T01:20:31.786Z,12.00
2023-01-25T01:23:01.699Z,12.05
2023-01-25T01:25:31.534Z,11.73
2023-01-25T01:28:01.462Z,12.23
2023-01-25T01:30:31.370Z,13.65
2023-01-25T01:33:01.357Z,12.13
2023-01-25T01:35:33.284Z,12.88
2023-01-25T01:38:03.302Z,13.82
2023-01-25T01:40:33.305Z,11.95
2023-01-25T01:43:09.989Z,12.77
2023-01-25T01:45:51.306Z,12.70
2023-01-25T01:48:48.438Z,12.75
2023-01-25T01:54:05.645Z,11.60
2023-01-25T01:56:53.946Z,14.15
2023-01-25T01:59:28.507Z,13.75
2023-01-25T02:01:59.051Z,11.68
2023-01-25T02:04:30.901Z,11.77
2023-01-25T02:07:24.775Z,12.40
2023-01-25T02:09:54.890Z,11.65
2023-01-25T02:12:26.385Z,12.93
2023-01-25T02:14:57.467Z,11.45
2023-01-25T02:17:36.978Z,11.73
2023-01-25T02:20:09.612Z,11.38
2023-01-25T02:23:02.543Z,11.43
2023-01-25T02:25:33.123Z,12.80
2023-01-25T02:28:12.954Z,12.18
2023-01-25T02:30:45.294Z,13.13
2023-01-25T02:33:15.902Z,12.73
2023-01-25T02:35:58.632Z,12.00
2023-01-25T02:38:29.220Z,13.00
2023-01-25T02:41:09.463Z,13.07
2023-01-25T02:43:39.921Z,11.57
2023-01-25T02:46:23.695Z,12.27
2023-01-25T02:48:54.063Z,12.82
2023-01-25T02:51:29.715Z,12.65
2023-01-25T02:54:00.569Z,12.52
2023-01-25T02:56:31.937Z,13.23
2023-01-25T02:59:07.659Z,12.52
2023-01-25T03:01:40.985Z,12.77
2023-01-25T03:04:11.712Z,12.77
2023-01-25T03:06:42.512Z,12.52
2023-01-25T03:09:13.966Z,12.30
2023-01-25T03:11:48.579Z,12.48
2023-01-25T03:14:20.436Z,12.70
2023-01-25T03:16:50.478Z,12.38
2023-01-25T03:19:23.541Z,11.73
2023-01-25T03:21:53.620Z,12.57
2023-01-25T03:24:24.040Z,11.68
2023-01-25T03:27:12.543Z,12.88
2023-01-25T03:30:05.309Z,12.45
2023-01-25T03:32:36.428Z,12.17
2023-01-25T03:35:11.223Z,12.07
2023-01-25T03:37:41.468Z,12.85
2023-01-25T03:40:12.425Z,11.88
2023-01-25T03:42:46.631Z,12.05
2023-01-25T03:45:16.820Z,12.13
2023-01-25T03:47:46.744Z,11.50
2023-01-25T03:50:17.845Z,12.47
2023-01-25T03:52:59.582Z,12.48
2023-01-25T03:55:35.885Z,11.60
2023-01-25T03:58:06.195Z,11.75
2023-01-25T04:00:37.658Z,11.65
2023-01-25T04:03:07.896Z,11.30
2023-01-25T04:05:38.325Z,11.60
2023-01-25T04:08:08.622Z,12.25
2023-01-25T04:10:42.050Z,11.07
2023-01-25T04:13:12.404Z,47.95
2023-01-25T04:15:42.684Z,11.20
2023-01-25T04:18:22.599Z,11.73
2023-01-25T04:20:56.465Z,11.57
2023-01-25T04:23:28.039Z,10.95
2023-01-25T04:26:05.461Z,11.45
2023-01-25T04:28:37.526Z,11.50
2023-01-25T04:31:08.510Z,11.38
2023-01-25T04:33:42.958Z,10.65
2023-01-25T04:36:13.982Z,11.15
2023-01-25T04:38:44.416Z,10.65
2023-01-25T04:41:14.987Z,11.23
2023-01-25T04:43:48.237Z,10.55
2023-01-25T04:46:19.089Z,10.83
2023-01-25T04:48:49.134Z,11.13
2023-01-25T04:51:20.428Z,11.43
2023-01-25T04:53:50.524Z,10.63
2023-01-25T04:56:20.415Z,10.15
2023-01-25T04:58:55.771Z,10.63
2023-01-25T05:01:25.953Z,11.63
2023-01-25T05:03:56.429Z,10.95
2023-01-25T05:06:40.600Z,10.75
2023-01-25T05:09:12.379Z,10.77
2023-01-25T05:11:43.109Z,10.65
2023-01-25T05:14:36.326Z,10.25
2023-01-25T05:17:06.944Z,11.10
2023-01-25T05:19:37.590Z,9.90
2023-01-25T05:22:09.842Z,10.48
2023-01-25T05:24:47.178Z,10.75
2023-01-25T05:27:21.053Z,10.85
2023-01-25T05:29:57.789Z,9.70
2023-01-25T05:32:41.508Z,10.63
2023-01-25T05:35:12.130Z,10.38
2023-01-25T05:37:42.788Z,10.45
2023-01-25T05:40:19.033Z,11.35
2023-01-25T05:42:56.963Z,11.27
2023-01-25T05:45:29.259Z,11.73
2023-01-25T05:48:01.563Z,11.57
2023-01-25T05:50:32.607Z,11.73
2023-01-25T05:53:15.579Z,10.70
2023-01-25T05:55:45.609Z,10.98
2023-01-25T05:58:18.972Z,10.80
2023-01-25T06:00:49.780Z,10.43
2023-01-25T06:03:34.340Z,12.30
2023-01-25T06:06:05.595Z,11.52
2023-01-25T06:08:37.823Z,11.23
2023-01-25T06:13:47.308Z,12.07
2023-01-25T06:16:18.859Z,14.20
2023-01-25T06:18:57.756Z,11.90
2023-01-25T06:21:46.332Z,11.90
2023-01-25T06:24:16.475Z,12.82
2023-01-25T06:26:46.306Z,13.00
2023-01-25T06:29:16.147Z,13.25
2023-01-25T06:31:46.079Z,15.45
2023-01-25T06:34:16.013Z,12.70
2023-01-25T06:36:46.557Z,13.82
2023-01-25T06:39:16.855Z,14.65
2023-01-25T06:41:46.726Z,14.18
2023-01-25T06:44:16.559Z,14.32
2023-01-25T06:46:46.498Z,14.20
2023-01-25T06:49:16.705Z,14.65
2023-01-25T06:51:46.755Z,14.15
2023-01-25T06:54:16.650Z,14.95
2023-01-25T06:56:46.693Z,14.00
2023-01-25T06:59:18.134Z,15.02
2023-01-25T07:01:48.451Z,17.15
2023-01-25T07:04:18.659Z,14.82
2023-01-25T07:06:48.693Z,15.15
2023-01-25T07:09:18.588Z,15.50
2023-01-25T07:11:48.449Z,15.45
2023-01-25T07:14:18.364Z,14.80
2023-01-25T07:16:48.275Z,16.58
2023-01-25T07:19:20.042Z,15.02
2023-01-25T07:21:50.107Z,15.32
2023-01-25T07:24:22.106Z,15.02
2023-01-25T07:26:52.244Z,15.30
2023-01-25T07:29:22.141Z,16.75
2023-01-25T07:31:52.311Z,16.15
2023-01-25T07:34:22.360Z,16.52
2023-01-25T07:36:52.321Z,16.05
2023-01-25T07:39:22.186Z,16.45
2023-01-25T07:41:52.215Z,16.65
2023-01-25T07:44:23.279Z,16.73
2023-01-25T07:46:57.677Z,17.65
2023-01-25T07:49:27.806Z,15.98
2023-01-25T07:51:57.611Z,17.15
2023-01-25T07:54:27.546Z,17.02
2023-01-25T07:56:57.667Z,17.13
2023-01-25T07:59:28.192Z,17.02
2023-01-25T08:01:58.503Z,16.90
2023-01-25T08:04:28.512Z,17.38
2023-01-25T08:06:59.255Z,15.65
2023-01-25T08:09:30.522Z,16.75
2023-01-25T08:12:00.560Z,16.55
2023-01-25T08:14:30.628Z,17.38
2023-01-25T08:17:00.563Z,17.00
2023-01-25T08:19:33.484Z,16.90
2023-01-25T08:22:03.559Z,17.60
2023-01-25T08:24:33.612Z,16.58
2023-01-25T08:27:03.762Z,17.77
2023-01-25T08:29:33.881Z,17.98
2023-01-25T08:32:06.554Z,17.73
2023-01-25T08:34:37.309Z,18.33
2023-01-25T08:37:07.395Z,17.20
2023-01-25T08:39:37.289Z,16.63
2023-01-25T08:42:08.423Z,18.02
2023-01-25T08:44:38.549Z,16.88
2023-01-25T08:47:08.793Z,17.73
2023-01-25T08:49:38.772Z,18.63
2023-01-25T08:52:08.671Z,17.67
2023-01-25T08:54:38.597Z,18.08
2023-01-25T08:57:08.590Z,18.90
2023-01-25T08:59:38.592Z,18.73
2023-01-25T09:02:09.046Z,17.73
2023-01-25T09:04:39.253Z,17.80
2023-01-25T09:07:09.968Z,17.90
2023-01-25T09:09:40.038Z,19.40
2023-01-25T09:12:11.995Z,18.83
2023-01-25T09:14:45.697Z,19.35
2023-01-25T09:17:15.667Z,19.73
2023-01-25T09:19:45.811Z,19.70
2023-01-25T09:22:15.898Z,18.30
2023-01-25T09:24:45.844Z,20.50
2023-01-25T09:27:15.837Z,19.90
2023-01-25T09:29:59.962Z,20.55
2023-01-25T09:32:31.360Z,19.50
2023-01-25T09:35:01.404Z,19.92
2023-01-25T09:37:31.209Z,20.27
2023-01-25T09:40:01.192Z,20.73
2023-01-25T09:42:51.406Z,19.85
2023-01-25T09:45:34.789Z,20.02
2023-01-25T09:48:25.509Z,21.30
2023-01-25T09:51:18.599Z,21.45
2023-01-25T09:53:55.117Z,20.52
2023-01-25T09:56:29.200Z,20.13
2023-01-25T09:59:22.064Z,21.25
2023-01-25T10:02:00.158Z,21.27
2023-01-25T10:04:44.442Z,20.25
2023-01-25T10:07:27.732Z,21.23
2023-01-25T10:10:08.096Z,20.23
2023-01-25T10:12:40.655Z,19.48
2023-01-25T10:15:23.003Z,21.55
2023-01-25T10:18:04.333Z,21.33
2023-01-25T10:20:43.035Z,20.92
2023-01-25T10:23:46.247Z,20.98
2023-01-25T10:26:29.375Z,19.95
2023-01-25T10:29:14.146Z,20.83
2023-01-25T10:31:52.435Z,22.15
2023-01-25T10:34:28.805Z,21.52
2023-01-25T10:37:07.384Z,21.23
2023-01-25T10:39:44.466Z,20.35
2023-01-25T10:42:17.758Z,20.52
2023-01-25T10:44:47.737Z,20.23
2023-01-25T10:47:31.445Z,21.92
2023-01-25T10:50:02.562Z,22.63
2023-01-25T10:52:34.517Z,20.75
2023-01-25T10:55:28.385Z,19.75
2023-01-25T10:58:00.215Z,19.55
2023-01-25T11:00:41.014Z,20.23
2023-01-25T11:03:24.409Z,22.67
2023-01-25T11:05:59.600Z,22.08
2023-01-25T11:08:40.298Z,21.65
2023-01-25T11:11:28.949Z,20.65
2023-01-25T11:13:59.153Z,20.60
2023-01-25T11:16:39.854Z,21.45
2023-01-25T11:19:31.116Z,20.63
2023-01-25T11:22:02.567Z,19.83
2023-01-25T11:24:36.630Z,19.17
2023-01-25T11:27:15.739Z,19.35
2023-01-25T11:29:49.066Z,20.42
2023-01-25T11:32:25.966Z,18.70
2023-01-25T11:34:57.288Z,19.08
2023-01-25T11:37:30.253Z,20.08
2023-01-25T11:40:39.011Z,19.23
2023-01-25T11:43:21.226Z,18.90
2023-01-25T11:46:32.772Z,21.40
2023-01-25T11:49:28.250Z,20.48
2023-01-25T11:52:30.637Z,20.70
2023-01-25T11:55:22.006Z,19.25
2023-01-25T11:58:39.489Z,19.45
2023-01-25T12:01:17.365Z,19.23
2023-01-25T12:04:12.386Z,21.38
2023-01-25T12:06:57.755Z,20.27
2023-01-25T12:09:52.955Z,19.05
2023-01-25T12:12:52.232Z,19.70
2023-01-25T12:15:49.173Z,19.08
2023-01-25T12:18:35.544Z,18.52
2023-01-25T12:21:22.891Z,19.45
2023-01-25T12:24:22.479Z,18.48
2023-01-25T12:27:27.947Z,19.20
2023-01-25T12:30:16.276Z,20.63
2023-01-25T12:32:59.511Z,18.50
2023-01-25T12:35:38.248Z,18.65
2023-01-25T12:38:40.549Z,18.90
2023-01-25T12:41:33.532Z,18.42
2023-01-25T12:44:11.841Z,18.45
2023-01-25T12:47:30.688Z,18.05
2023-01-25T12:50:16.410Z,18.77
2023-01-25T12:52:55.019Z,17.77
2023-01-25T12:55:25.346Z,19.27
2023-01-25T12:58:21.611Z,19.48
2023-01-25T13:01:22.517Z,20.08
2023-01-25T13:04:11.441Z,20.60
2023-01-25T13:06:55.722Z,21.50
2023-01-25T13:09:32.271Z,18.23
2023-01-25T13:12:06.332Z,20.33
2023-01-25T13:14:43.857Z,20.55
2023-01-25T13:17:18.312Z,19.50
2023-01-25T13:19:48.346Z,19.02
2023-01-25T13:22:47.054Z,22.55
2023-01-25T13:25:19.706Z,21.88
2023-01-25T13:27:50.220Z,22.08
2023-01-25T13:30:36.950Z,24.27
2023-01-25T13:34:46.525Z,24.52
2023-01-25T15:04:16.185Z,425.67
2023-01-25T15:06:52.430Z,395.83
2023-01-25T15:10:03.318Z,350.45
2023-01-25T15:12:35.277Z,195.20
2023-01-25T15:15:05.364Z,51.28
2023-01-25T15:17:48.171Z,61.00
2023-01-25T15:20:37.000Z,68.15
2023-01-25T15:23:28.462Z,79.17
2023-01-25T15:26:00.714Z,63.55
2023-01-25T15:28:38.827Z,95.68
2023-01-25T15:31:09.093Z,83.68
2023-01-25T15:33:39.258Z,110.07
2023-01-25T22:10:16.311Z,39.22
2023-01-25T22:12:47.694Z,41.17
2023-01-25T22:17:47.329Z,40.78
2023-01-25T23:01:20.174Z,958.75
2023-01-25T23:03:51.823Z,960.10
2023-01-25T23:06:29.394Z,928.72
2023-01-25T23:09:05.419Z,950.80
2023-01-25T23:11:39.138Z,938.50
2023-01-25T23:14:33.205Z,936.28
2023-01-25T23:17:21.292Z,941.47
2023-01-25T23:19:51.274Z,943.28
2023-01-25T23:22:21.084Z,937.10
2023-01-25T23:24:51.128Z,924.60
2023-01-25T23:27:21.037Z,940.97
2023-01-25T23:29:52.037Z,821.80
2023-01-25T23:32:22.541Z,873.97
2023-01-25T23:34:55.336Z,735.28
2023-01-25T23:37:25.921Z,722.47
2023-01-25T23:39:56.101Z,575.53
2023-01-25T23:42:26.310Z,670.63
2023-01-25T23:44:56.159Z,623.38
2023-01-25T23:47:26.042Z,438.02
2023-01-25T23:49:56.068Z,438.60
2023-01-25T23:52:26.003Z,327.95
2023-01-25T23:54:55.927Z,445.17
2023-01-25T23:57:25.823Z,322.85
2023-01-25T23:59:55.750Z,329.85
